sensor_id;sensor_type;location;lat;lon;timestamp;pressure;altitude;pressure_sealevel;temperature;humidity
51928;BME280;37953;52.806;18.270;2022-09-24T00:03:41;100710.28;;;11.81;100.00
51928;BME280;37953;52.806;18.270;2022-09-24T00:06:08;100713.75;;;11.79;100.00
51928;BME280;37953;52.806;18.270;2022-09-24T00:08:34;100703.31;;;11.76;100.00
51928;BME280;37953;52.806;18.270;2022-09-24T00:11:03;100708.53;;;11.76;100.00
51928;BME280;37953;52.806;18.270;2022-09-24T00:13:31;100707.66;;;11.75;100.00
51928;BME280;37953;52.806;18.270;2022-09-24T00:16:04;100701.59;;;11.75;100.00
51928;BME280;37953;52.806;18.270;2022-09-24T00:18:32;100699.84;;;11.74;100.00
51928;BME280;37953;52.806;18.270;2022-09-24T00:20:58;100697.25;;;11.74;100.00
51928;BME280;37953;52.806;18.270;2022-09-24T00:23:25;100701.59;;;11.73;100.00
51928;BME280;37953;52.806;18.270;2022-09-24T00:25:51;100695.50;;;11.71;100.00
51928;BME280;37953;52.806;18.270;2022-09-24T00:28:36;100691.16;;;11.70;100.00
51928;BME280;37953;52.806;18.270;2022-09-24T00:31:05;100686.81;;;11.68;100.00
51928;BME280;37953;52.806;18.270;2022-09-24T00:33:37;100689.41;;;11.68;100.00
51928;BME280;37953;52.806;18.270;2022-09-24T00:36:04;100684.22;;;11.63;100.00
51928;BME280;37953;52.806;18.270;2022-09-24T00:38:31;100681.63;;;11.60;100.00
51928;BME280;37953;52.806;18.270;2022-09-24T00:43:33;100680.72;;;11.56;100.00
51928;BME280;37953;52.806;18.270;2022-09-24T00:46:23;100673.78;;;11.57;100.00
51928;BME280;37953;52.806;18.270;2022-09-24T00:48:53;100671.19;;;11.54;100.00
51928;BME280;37953;52.806;18.270;2022-09-24T00:51:24;100668.56;;;11.51;100.00
51928;BME280;37953;52.806;18.270;2022-09-24T00:54:00;100670.31;;;11.50;100.00
51928;BME280;37953;52.806;18.270;2022-09-24T00:56:32;100672.91;;;11.50;100.00
51928;BME280;37953;52.806;18.270;2022-09-24T00:59:02;100671.16;;;11.49;100.00
51928;BME280;37953;52.806;18.270;2022-09-24T01:01:34;100665.09;;;11.50;100.00
51928;BME280;37953;52.806;18.270;2022-09-24T01:04:01;100665.09;;;11.50;100.00
51928;BME280;37953;52.806;18.270;2022-09-24T01:06:29;100663.34;;;11.49;100.00
51928;BME280;37953;52.806;18.270;2022-09-24T01:08:57;100658.16;;;11.49;100.00
51928;BME280;37953;52.806;18.270;2022-09-24T01:15:37;100656.44;;;11.53;100.00
51928;BME280;37953;52.806;18.270;2022-09-24T01:18:03;100652.97;;;11.54;100.00
51928;BME280;37953;52.806;18.270;2022-09-24T01:21:02;100646.88;;;11.53;100.00
51928;BME280;37953;52.806;18.270;2022-09-24T01:26:47;100646.91;;;11.50;100.00
51928;BME280;37953;52.806;18.270;2022-09-24T01:29:30;100652.97;;;11.48;100.00
51928;BME280;37953;52.806;18.270;2022-09-24T01:32:00;100647.75;;;11.55;100.00
51928;BME280;37953;52.806;18.270;2022-09-24T01:34:40;100641.69;;;11.47;100.00
51928;BME280;37953;52.806;18.270;2022-09-24T01:37:20;100640.81;;;11.45;100.00
51928;BME280;37953;52.806;18.270;2022-09-24T01:39:48;100642.56;;;11.43;100.00
51928;BME280;37953;52.806;18.270;2022-09-24T01:42:17;100633.88;;;11.41;100.00
51928;BME280;37953;52.806;18.270;2022-09-24T01:44:45;100639.97;;;11.43;100.00
51928;BME280;37953;52.806;18.270;2022-09-24T01:47:37;100633.03;;;11.45;100.00
51928;BME280;37953;52.806;18.270;2022-09-24T01:50:06;100635.59;;;11.42;100.00
51928;BME280;37953;52.806;18.270;2022-09-24T01:52:39;100641.66;;;11.43;100.00
51928;BME280;37953;52.806;18.270;2022-09-24T01:55:08;100638.22;;;11.44;100.00
51928;BME280;37953;52.806;18.270;2022-09-24T01:57:55;100643.44;;;11.45;100.00
51928;BME280;37953;52.806;18.270;2022-09-24T02:00:25;100633.00;;;11.42;100.00
51928;BME280;37953;52.806;18.270;2022-09-24T02:05:38;100639.09;;;11.47;100.00
51928;BME280;37953;52.806;18.270;2022-09-24T02:13:18;100636.47;;;11.44;100.00
51928;BME280;37953;52.806;18.270;2022-09-24T02:15:51;100638.22;;;11.44;100.00
51928;BME280;37953;52.806;18.270;2022-09-24T02:18:22;100628.66;;;11.43;100.00
51928;BME280;37953;52.806;18.270;2022-09-24T02:20:51;100632.13;;;11.41;100.00
51928;BME280;37953;52.806;18.270;2022-09-24T02:23:19;100634.75;;;11.41;100.00
51928;BME280;37953;52.806;18.270;2022-09-24T02:25:52;100627.81;;;11.42;100.00
51928;BME280;37953;52.806;18.270;2022-09-24T02:28:20;100629.53;;;11.41;100.00
51928;BME280;37953;52.806;18.270;2022-09-24T02:30:50;100624.34;;;11.41;100.00
51928;BME280;37953;52.806;18.270;2022-09-24T02:33:19;100619.97;;;11.40;100.00
51928;BME280;37953;52.806;18.270;2022-09-24T02:36:05;100618.25;;;11.39;100.00
51928;BME280;37953;52.806;18.270;2022-09-24T02:38:31;100615.66;;;11.41;100.00
51928;BME280;37953;52.806;18.270;2022-09-24T02:40:57;100606.97;;;11.40;100.00
51928;BME280;37953;52.806;18.270;2022-09-24T02:43:23;100610.44;;;11.43;100.00
51928;BME280;37953;52.806;18.270;2022-09-24T02:45:50;100620.00;;;11.42;100.00
51928;BME280;37953;52.806;18.270;2022-09-24T02:48:16;100608.72;;;11.41;100.00
51928;BME280;37953;52.806;18.270;2022-09-24T02:50:42;100610.47;;;11.41;100.00
51928;BME280;37953;52.806;18.270;2022-09-24T02:53:08;100612.19;;;11.40;100.00
51928;BME280;37953;52.806;18.270;2022-09-24T02:55:34;100616.53;;;11.41;100.00
51928;BME280;37953;52.806;18.270;2022-09-24T02:58:00;100619.13;;;11.41;100.00
51928;BME280;37953;52.806;18.270;2022-09-24T03:00:25;100619.13;;;11.41;100.00
51928;BME280;37953;52.806;18.270;2022-09-24T03:02:51;100614.78;;;11.42;100.00
51928;BME280;37953;52.806;18.270;2022-09-24T03:05:17;100613.06;;;11.43;100.00
51928;BME280;37953;52.806;18.270;2022-09-24T03:07:44;100612.19;;;11.40;100.00
51928;BME280;37953;52.806;18.270;2022-09-24T03:10:10;100609.59;;;11.42;100.00
51928;BME280;37953;52.806;18.270;2022-09-24T03:12:36;100607.00;;;11.44;100.00
51928;BME280;37953;52.806;18.270;2022-09-24T03:15:02;100603.50;;;11.45;100.00
51928;BME280;37953;52.806;18.270;2022-09-24T03:17:28;100605.25;;;11.44;100.00
51928;BME280;37953;52.806;18.270;2022-09-24T03:19:58;100594.88;;;11.46;100.00
51928;BME280;37953;52.806;18.270;2022-09-24T03:22:24;100596.59;;;11.45;100.00
51928;BME280;37953;52.806;18.270;2022-09-24T03:24:50;100599.22;;;11.45;100.00
51928;BME280;37953;52.806;18.270;2022-09-24T03:27:16;100594.00;;;11.45;100.00
51928;BME280;37953;52.806;18.270;2022-09-24T03:29:42;100600.06;;;11.47;100.00
51928;BME280;37953;52.806;18.270;2022-09-24T03:32:26;100588.78;;;11.48;100.00
51928;BME280;37953;52.806;18.270;2022-09-24T03:34:52;100591.38;;;11.48;100.00
51928;BME280;37953;52.806;18.270;2022-09-24T03:37:18;100592.25;;;11.49;100.00
51928;BME280;37953;52.806;18.270;2022-09-24T03:39:44;100599.19;;;11.48;100.00
51928;BME280;37953;52.806;18.270;2022-09-24T03:42:10;100596.59;;;11.48;100.00
51928;BME280;37953;52.806;18.270;2022-09-24T03:44:36;100598.31;;;11.49;100.00
51928;BME280;37953;52.806;18.270;2022-09-24T03:47:02;100598.31;;;11.49;100.00
51928;BME280;37953;52.806;18.270;2022-09-24T03:49:28;100598.31;;;11.49;100.00
51928;BME280;37953;52.806;18.270;2022-09-24T03:51:54;100594.84;;;11.49;100.00
51928;BME280;37953;52.806;18.270;2022-09-24T03:54:20;100589.66;;;11.49;100.00
51928;BME280;37953;52.806;18.270;2022-09-24T03:56:46;100590.53;;;11.48;100.00
51928;BME280;37953;52.806;18.270;2022-09-24T03:59:14;100595.72;;;11.48;100.00
51928;BME280;37953;52.806;18.270;2022-09-24T04:01:40;100594.88;;;11.46;100.00
51928;BME280;37953;52.806;18.270;2022-09-24T04:04:06;100597.44;;;11.44;100.00
51928;BME280;37953;52.806;18.270;2022-09-24T04:06:32;100597.44;;;11.43;100.00
51928;BME280;37953;52.806;18.270;2022-09-24T04:08:58;100602.66;;;11.41;100.00
51928;BME280;37953;52.806;18.270;2022-09-24T04:11:24;100596.59;;;11.39;100.00
51928;BME280;37953;52.806;18.270;2022-09-24T04:13:50;100598.31;;;11.38;100.00
51928;BME280;37953;52.806;18.270;2022-09-24T04:16:16;100592.22;;;11.36;100.00
51928;BME280;37953;52.806;18.270;2022-09-24T04:18:42;100595.72;;;11.35;100.00
51928;BME280;37953;52.806;18.270;2022-09-24T04:21:09;100596.56;;;11.36;100.00
51928;BME280;37953;52.806;18.270;2022-09-24T04:23:35;100593.13;;;11.37;100.00
51928;BME280;37953;52.806;18.270;2022-09-24T04:26:01;100591.34;;;11.34;100.00
51928;BME280;37953;52.806;18.270;2022-09-24T04:28:30;100593.97;;;11.36;100.00
51928;BME280;37953;52.806;18.270;2022-09-24T04:30:56;100596.56;;;11.34;100.00
51928;BME280;37953;52.806;18.270;2022-09-24T04:33:23;100596.59;;;11.33;100.00
51928;BME280;37953;52.806;18.270;2022-09-24T04:35:48;100587.03;;;11.32;100.00
51928;BME280;37953;52.806;18.270;2022-09-24T04:38:14;100593.97;;;11.31;100.00
51928;BME280;37953;52.806;18.270;2022-09-24T04:40:40;100582.72;;;11.31;100.00
51928;BME280;37953;52.806;18.270;2022-09-24T04:43:06;100590.50;;;11.31;100.00
51928;BME280;37953;52.806;18.270;2022-09-24T04:45:32;100578.38;;;11.28;100.00
51928;BME280;37953;52.806;18.270;2022-09-24T04:47:58;100589.66;;;11.30;100.00
51928;BME280;37953;52.806;18.270;2022-09-24T04:50:25;100593.09;;;11.31;100.00
51928;BME280;37953;52.806;18.270;2022-09-24T04:52:53;100585.28;;;11.29;100.00
51928;BME280;37953;52.806;18.270;2022-09-24T04:55:26;100588.78;;;11.33;100.00
51928;BME280;37953;52.806;18.270;2022-09-24T04:57:56;100590.50;;;11.34;100.00
51928;BME280;37953;52.806;18.270;2022-09-24T05:00:28;100590.50;;;11.35;100.00
51928;BME280;37953;52.806;18.270;2022-09-24T05:02:59;100588.75;;;11.34;100.00
51928;BME280;37953;52.806;18.270;2022-09-24T05:05:26;100589.66;;;11.35;100.00
51928;BME280;37953;52.806;18.270;2022-09-24T05:07:52;100590.50;;;11.35;100.00
51928;BME280;37953;52.806;18.270;2022-09-24T05:10:25;100584.44;;;11.36;100.00
51928;BME280;37953;52.806;18.270;2022-09-24T05:12:51;100581.81;;;11.36;100.00
51928;BME280;37953;52.806;18.270;2022-09-24T05:15:17;100580.09;;;11.35;100.00
51928;BME280;37953;52.806;18.270;2022-09-24T05:17:46;100576.63;;;11.36;100.00
51928;BME280;37953;52.806;18.270;2022-09-24T05:20:13;100578.38;;;11.36;100.00
51928;BME280;37953;52.806;18.270;2022-09-24T05:22:48;100581.81;;;11.36;100.00
51928;BME280;37953;52.806;18.270;2022-09-24T05:25:15;100574.03;;;11.36;100.00
51928;BME280;37953;52.806;18.270;2022-09-24T05:27:46;100572.31;;;11.35;100.00
51928;BME280;37953;52.806;18.270;2022-09-24T05:30:13;100570.56;;;11.36;100.00
51928;BME280;37953;52.806;18.270;2022-09-24T05:32:40;100573.16;;;11.33;100.00
51928;BME280;37953;52.806;18.270;2022-09-24T05:35:07;100580.09;;;11.34;100.00
51928;BME280;37953;52.806;18.270;2022-09-24T05:37:35;100562.75;;;11.34;100.00
51928;BME280;37953;52.806;18.270;2022-09-24T05:40:02;100564.50;;;11.37;100.00
51928;BME280;37953;52.806;18.270;2022-09-24T05:42:49;100568.84;;;11.39;100.00
51928;BME280;37953;52.806;18.270;2022-09-24T05:45:16;100570.56;;;11.42;100.00
51928;BME280;37953;52.806;18.270;2022-09-24T05:47:46;100567.97;;;11.44;100.00
51928;BME280;37953;52.806;18.270;2022-09-24T05:50:12;100567.09;;;11.45;100.00
51928;BME280;37953;52.806;18.270;2022-09-24T05:52:44;100572.31;;;11.46;100.00
51928;BME280;37953;52.806;18.270;2022-09-24T05:55:10;100566.25;;;11.47;100.00
51928;BME280;37953;52.806;18.270;2022-09-24T05:57:36;100568.84;;;11.49;100.00
51928;BME280;37953;52.806;18.270;2022-09-24T06:00:04;100567.09;;;11.51;100.00
51928;BME280;37953;52.806;18.270;2022-09-24T06:02:30;100573.19;;;11.53;100.00
51928;BME280;37953;52.806;18.270;2022-09-24T06:04:56;100573.19;;;11.54;100.00
51928;BME280;37953;52.806;18.270;2022-09-24T06:07:22;100571.44;;;11.56;100.00
51928;BME280;37953;52.806;18.270;2022-09-24T06:09:48;100571.47;;;11.58;100.00
51928;BME280;37953;52.806;18.270;2022-09-24T06:12:15;100571.44;;;11.61;100.00
51928;BME280;37953;52.806;18.270;2022-09-24T06:14:42;100578.38;;;11.64;100.00
51928;BME280;37953;52.806;18.270;2022-09-24T06:17:09;100576.66;;;11.64;100.00
51928;BME280;37953;52.806;18.270;2022-09-24T06:19:35;100573.19;;;11.65;100.00
51928;BME280;37953;52.806;18.270;2022-09-24T06:22:01;100574.91;;;11.66;100.00
51928;BME280;37953;52.806;18.270;2022-09-24T06:24:33;100572.31;;;11.68;100.00
51928;BME280;37953;52.806;18.270;2022-09-24T06:26:59;100574.91;;;11.68;100.00
51928;BME280;37953;52.806;18.270;2022-09-24T06:29:26;100569.69;;;11.66;100.00
51928;BME280;37953;52.806;18.270;2022-09-24T06:31:52;100572.31;;;11.68;100.00
51928;BME280;37953;52.806;18.270;2022-09-24T06:34:18;100580.97;;;11.68;100.00
51928;BME280;37953;52.806;18.270;2022-09-24T06:36:45;100576.66;;;11.70;100.00
51928;BME280;37953;52.806;18.270;2022-09-24T06:39:11;100576.66;;;11.72;100.00
51928;BME280;37953;52.806;18.270;2022-09-24T06:41:36;100576.66;;;11.73;100.00
51928;BME280;37953;52.806;18.270;2022-09-24T06:44:03;100580.13;;;11.75;100.00
51928;BME280;37953;52.806;18.270;2022-09-24T06:46:28;100581.00;;;11.77;100.00
51928;BME280;37953;52.806;18.270;2022-09-24T06:48:54;100581.00;;;11.79;100.00
51928;BME280;37953;52.806;18.270;2022-09-24T06:51:21;100583.59;;;11.80;100.00
51928;BME280;37953;52.806;18.270;2022-09-24T06:53:51;100580.09;;;11.83;100.00
51928;BME280;37953;52.806;18.270;2022-09-24T06:56:17;100579.25;;;11.84;100.00
51928;BME280;37953;52.806;18.270;2022-09-24T06:58:43;100583.59;;;11.87;100.00
51928;BME280;37953;52.806;18.270;2022-09-24T07:01:09;100574.06;;;11.89;100.00
51928;BME280;37953;52.806;18.270;2022-09-24T07:03:35;100580.16;;;11.92;100.00
51928;BME280;37953;52.806;18.270;2022-09-24T07:06:04;100577.53;;;11.95;100.00
51928;BME280;37953;52.806;18.270;2022-09-24T07:08:30;100576.66;;;11.98;100.00
51928;BME280;37953;52.806;18.270;2022-09-24T07:10:57;100581.88;;;12.02;100.00
51928;BME280;37953;52.806;18.270;2022-09-24T07:13:23;100579.25;;;12.04;100.00
51928;BME280;37953;52.806;18.270;2022-09-24T07:15:50;100583.59;;;12.08;100.00
51928;BME280;37953;52.806;18.270;2022-09-24T07:18:17;100581.00;;;12.10;100.00
51928;BME280;37953;52.806;18.270;2022-09-24T07:20:50;100583.59;;;12.13;100.00
51928;BME280;37953;52.806;18.270;2022-09-24T07:23:22;100585.31;;;12.14;100.00
51928;BME280;37953;52.806;18.270;2022-09-24T07:25:49;100594.00;;;12.16;100.00
51928;BME280;37953;52.806;18.270;2022-09-24T07:28:24;100594.00;;;12.17;100.00
51928;BME280;37953;52.806;18.270;2022-09-24T07:30:57;100589.66;;;12.19;100.00
51928;BME280;37953;52.806;18.270;2022-09-24T07:33:23;100593.13;;;12.21;100.00
51928;BME280;37953;52.806;18.270;2022-09-24T07:35:50;100594.84;;;12.22;100.00
51928;BME280;37953;52.806;18.270;2022-09-24T07:38:17;100596.56;;;12.25;100.00
51928;BME280;37953;52.806;18.270;2022-09-24T07:40:42;100594.88;;;12.26;100.00
51928;BME280;37953;52.806;18.270;2022-09-24T07:43:20;100599.19;;;12.30;100.00
51928;BME280;37953;52.806;18.270;2022-09-24T07:45:46;100600.91;;;12.31;100.00
51928;BME280;37953;52.806;18.270;2022-09-24T07:48:13;100598.28;;;12.34;100.00
51928;BME280;37953;52.806;18.270;2022-09-24T07:50:42;100593.09;;;12.35;100.00
51928;BME280;37953;52.806;18.270;2022-09-24T07:53:12;100598.28;;;12.40;100.00
51928;BME280;37953;52.806;18.270;2022-09-24T07:55:39;100600.03;;;12.41;100.00
51928;BME280;37953;52.806;18.270;2022-09-24T07:58:13;100600.00;;;12.46;100.00
51928;BME280;37953;52.806;18.270;2022-09-24T08:00:41;100592.19;;;12.47;100.00
51928;BME280;37953;52.806;18.270;2022-09-24T08:03:11;100593.03;;;12.52;100.00
51928;BME280;37953;52.806;18.270;2022-09-24T08:05:46;100599.13;;;12.57;100.00
51928;BME280;37953;52.806;18.270;2022-09-24T08:08:13;100604.31;;;12.59;100.00
51928;BME280;37953;52.806;18.270;2022-09-24T08:10:39;100596.50;;;12.62;100.00
51928;BME280;37953;52.806;18.270;2022-09-24T08:13:18;100602.53;;;12.66;100.00
51928;BME280;37953;52.806;18.270;2022-09-24T08:15:44;100599.06;;;12.68;100.00
51928;BME280;37953;52.806;18.270;2022-09-24T08:18:10;100606.00;;;12.72;100.00
51928;BME280;37953;52.806;18.270;2022-09-24T08:20:37;100602.53;;;12.75;100.00
51928;BME280;37953;52.806;18.270;2022-09-24T08:23:07;100602.50;;;12.79;100.00
51928;BME280;37953;52.806;18.270;2022-09-24T08:25:35;100599.88;;;12.82;100.00
51928;BME280;37953;52.806;18.270;2022-09-24T08:28:08;100595.50;;;12.86;100.00
51928;BME280;37953;52.806;18.270;2022-09-24T08:30:38;100598.97;;;12.90;100.00
51928;BME280;37953;52.806;18.270;2022-09-24T08:33:05;100600.69;;;12.94;100.00
51928;BME280;37953;52.806;18.270;2022-09-24T08:35:33;100599.81;;;12.98;100.00
51928;BME280;37953;52.806;18.270;2022-09-24T08:38:01;100598.03;;;13.03;100.00
51928;BME280;37953;52.806;18.270;2022-09-24T08:40:45;100601.50;;;13.07;100.00
51928;BME280;37953;52.806;18.270;2022-09-24T08:46:27;100595.41;;;13.12;100.00
51928;BME280;37953;52.806;18.270;2022-09-24T08:49:28;100599.72;;;13.13;100.00
51928;BME280;37953;52.806;18.270;2022-09-24T08:52:35;100600.59;;;13.15;100.00
51928;BME280;37953;52.806;18.270;2022-09-24T08:55:17;100604.06;;;13.19;100.00
51928;BME280;37953;52.806;18.270;2022-09-24T08:57:53;100606.63;;;13.22;100.00
51928;BME280;37953;52.806;18.270;2022-09-24T09:00:22;100607.47;;;13.24;100.00
51928;BME280;37953;52.806;18.270;2022-09-24T09:03:00;100607.47;;;13.27;100.00
51928;BME280;37953;52.806;18.270;2022-09-24T09:05:54;100606.63;;;13.30;100.00
51928;BME280;37953;52.806;18.270;2022-09-24T09:09:02;100601.38;;;13.33;100.00
51928;BME280;37953;52.806;18.270;2022-09-24T09:11:33;100601.38;;;13.34;100.00
51928;BME280;37953;52.806;18.270;2022-09-24T09:17:22;100597.84;;;13.41;100.00
51928;BME280;37953;52.806;18.270;2022-09-24T09:20:27;100600.44;;;13.44;100.00
51928;BME280;37953;52.806;18.270;2022-09-24T09:23:19;100596.94;;;13.49;100.00
51928;BME280;37953;52.806;18.270;2022-09-24T09:25:56;100603.00;;;13.51;100.00
51928;BME280;37953;52.806;18.270;2022-09-24T09:28:46;100596.00;;;13.56;100.00
51928;BME280;37953;52.806;18.270;2022-09-24T09:34:27;100598.56;;;13.62;100.00
51928;BME280;37953;52.806;18.270;2022-09-24T09:37:30;100600.28;;;13.64;100.00
51928;BME280;37953;52.806;18.270;2022-09-24T09:43:09;100596.75;;;13.72;100.00
51928;BME280;37953;52.806;18.270;2022-09-24T09:48:10;100598.44;;;13.77;100.00
51928;BME280;37953;52.806;18.270;2022-09-24T09:50:51;100594.91;;;13.81;100.00
51928;BME280;37953;52.806;18.270;2022-09-24T09:53:35;100598.38;;;13.87;100.00
51928;BME280;37953;52.806;18.270;2022-09-24T09:56:05;100588.75;;;13.90;100.00
51928;BME280;37953;52.806;18.270;2022-09-24T09:58:35;100593.97;;;13.93;100.00
51928;BME280;37953;52.806;18.270;2022-09-24T10:01:10;100586.94;;;13.98;100.00
51928;BME280;37953;52.806;18.270;2022-09-24T10:06:23;100587.72;;;14.05;100.00
51928;BME280;37953;52.806;18.270;2022-09-24T10:09:18;100585.94;;;14.12;100.00
51928;BME280;37953;52.806;18.270;2022-09-24T10:11:46;100586.78;;;14.15;100.00
51928;BME280;37953;52.806;18.270;2022-09-24T10:14:15;100588.47;;;14.21;100.00
51928;BME280;37953;52.806;18.270;2022-09-24T10:16:53;100584.94;;;14.25;100.00
51928;BME280;37953;52.806;18.270;2022-09-24T10:19:25;100588.38;;;14.29;100.00
51928;BME280;37953;52.806;18.270;2022-09-24T10:21:55;100592.69;;;14.33;100.00
51928;BME280;37953;52.806;18.270;2022-09-24T10:24:26;100585.69;;;14.36;100.00
51928;BME280;37953;52.806;18.270;2022-09-24T10:26:54;100582.16;;;14.40;100.00
51928;BME280;37953;52.806;18.270;2022-09-24T10:29:30;100577.75;;;14.44;100.00
51928;BME280;37953;52.806;18.270;2022-09-24T10:32:20;100581.19;;;14.49;100.00
51928;BME280;37953;52.806;18.270;2022-09-24T10:35:15;100577.66;;;14.53;100.00
51928;BME280;37953;52.806;18.270;2022-09-24T10:37:57;100575.91;;;14.57;100.00
51928;BME280;37953;52.806;18.270;2022-09-24T10:40:42;100578.47;;;14.61;100.00
51928;BME280;37953;52.806;18.270;2022-09-24T10:43:17;100570.56;;;14.64;100.00
51928;BME280;37953;52.806;18.270;2022-09-24T10:51:30;100558.25;;;14.74;100.00
51928;BME280;37953;52.806;18.270;2022-09-24T10:57:35;100559.03;;;14.81;100.00
51928;BME280;37953;52.806;18.270;2022-09-24T11:03:32;100559.00;;;14.84;99.26
51928;BME280;37953;52.806;18.270;2022-09-24T11:20:38;100556.50;;;14.75;96.58
51928;BME280;37953;52.806;18.270;2022-09-24T11:23:30;100549.53;;;14.74;96.54
51928;BME280;37953;52.806;18.270;2022-09-24T11:29:04;100544.34;;;14.71;92.82
51928;BME280;37953;52.806;18.270;2022-09-24T11:51:25;100524.25;;;14.74;94.11
51928;BME280;37953;52.806;18.270;2022-09-24T11:54:29;100522.50;;;14.75;94.17
51928;BME280;37953;52.806;18.270;2022-09-24T11:59:55;100533.81;;;14.77;92.07
51928;BME280;37953;52.806;18.270;2022-09-24T12:08:28;100533.00;;;14.73;91.92
51928;BME280;37953;52.806;18.270;2022-09-24T12:11:02;100524.31;;;14.71;89.82
51928;BME280;37953;52.806;18.270;2022-09-24T12:13:41;100523.41;;;14.72;91.00
51928;BME280;37953;52.806;18.270;2022-09-24T12:16:11;100529.47;;;14.76;92.15
51928;BME280;37953;52.806;18.270;2022-09-24T12:21:24;100523.41;;;14.72;92.20
51928;BME280;37953;52.806;18.270;2022-09-24T12:24:00;100517.31;;;14.73;91.22
51928;BME280;37953;52.806;18.270;2022-09-24T12:26:27;100521.63;;;14.74;92.26
51928;BME280;37953;52.806;18.270;2022-09-24T12:31:54;100511.94;;;14.82;91.68
51928;BME280;37953;52.806;18.270;2022-09-24T12:37:32;100516.16;;;14.93;91.99
51928;BME280;37953;52.806;18.270;2022-09-24T12:42:45;100513.41;;;15.00;90.46
51928;BME280;37953;52.806;18.270;2022-09-24T12:45:19;100514.25;;;15.04;90.58
51928;BME280;37953;52.806;18.270;2022-09-24T12:47:54;100514.22;;;15.05;90.61
51928;BME280;37953;52.806;18.270;2022-09-24T12:50:27;100508.06;;;15.08;90.60
51928;BME280;37953;52.806;18.270;2022-09-24T12:52:54;100514.16;;;15.10;90.45
51928;BME280;37953;52.806;18.270;2022-09-24T12:55:22;100512.38;;;15.12;88.63
51928;BME280;37953;52.806;18.270;2022-09-24T12:58:04;100507.13;;;15.14;86.69
51928;BME280;37953;52.806;18.270;2022-09-24T13:02:58;100511.34;;;15.22;85.62
51928;BME280;37953;52.806;18.270;2022-09-24T13:05:30;100509.56;;;15.24;83.77
51928;BME280;37953;52.806;18.270;2022-09-24T13:08:21;100508.66;;;15.25;83.32
51928;BME280;37953;52.806;18.270;2022-09-24T13:10:56;100511.28;;;15.27;82.31
51928;BME280;37953;52.806;18.270;2022-09-24T13:13:36;100505.19;;;15.26;81.53
51928;BME280;37953;52.806;18.270;2022-09-24T13:16:17;100505.19;;;15.26;81.27
51928;BME280;37953;52.806;18.270;2022-09-24T13:18:58;100507.81;;;15.26;81.51
51928;BME280;37953;52.806;18.270;2022-09-24T13:21:27;100505.19;;;15.25;81.08
51928;BME280;37953;52.806;18.270;2022-09-24T13:23:56;100508.72;;;15.22;82.53
51928;BME280;37953;52.806;18.270;2022-09-24T13:29:35;100503.50;;;15.21;82.32
51928;BME280;37953;52.806;18.270;2022-09-24T13:32:01;100504.41;;;15.20;82.63
51928;BME280;37953;52.806;18.270;2022-09-24T13:34:31;100500.97;;;15.18;82.90
51928;BME280;37953;52.806;18.270;2022-09-24T13:45:24;100489.66;;;15.16;85.45
51928;BME280;37953;52.806;18.270;2022-09-24T13:47:56;100489.66;;;15.16;86.04
51928;BME280;37953;52.806;18.270;2022-09-24T13:50:58;100492.28;;;15.16;85.00
51928;BME280;37953;52.806;18.270;2022-09-24T13:56:24;100480.06;;;15.13;88.34
51928;BME280;37953;52.806;18.270;2022-09-24T13:59:03;100480.97;;;15.14;88.35
51928;BME280;37953;52.806;18.270;2022-09-24T14:01:41;100480.06;;;15.13;89.08
51928;BME280;37953;52.806;18.270;2022-09-24T14:04:20;100477.47;;;15.13;89.50
51928;BME280;37953;52.806;18.270;2022-09-24T14:06:56;100481.84;;;15.13;89.78
51928;BME280;37953;52.806;18.270;2022-09-24T14:09:28;100474.88;;;15.12;90.50
51928;BME280;37953;52.806;18.270;2022-09-24T14:14:45;100474.88;;;15.12;93.21
51928;BME280;37953;52.806;18.270;2022-09-24T14:17:15;100468.81;;;15.10;92.96
51928;BME280;37953;52.806;18.270;2022-09-24T14:19:42;100474.91;;;15.09;92.38
51928;BME280;37953;52.806;18.270;2022-09-24T14:22:20;100466.19;;;15.10;92.47
51928;BME280;37953;52.806;18.270;2022-09-24T14:27:21;100461.84;;;15.09;92.00
51928;BME280;37953;52.806;18.270;2022-09-24T14:29:58;100463.59;;;15.06;92.83
51928;BME280;37953;52.806;18.270;2022-09-24T14:32:40;100460.13;;;15.07;93.17
51928;BME280;37953;52.806;18.270;2022-09-24T14:35:20;100460.13;;;15.07;94.45
51928;BME280;37953;52.806;18.270;2022-09-24T14:37:57;100454.00;;;15.09;95.90
51928;BME280;37953;52.806;18.270;2022-09-24T14:40:26;100447.91;;;15.06;96.06
51928;BME280;37953;52.806;18.270;2022-09-24T14:42:58;100444.44;;;15.07;96.39
51928;BME280;37953;52.806;18.270;2022-09-24T14:45:35;100452.28;;;15.07;95.98
51928;BME280;37953;52.806;18.270;2022-09-24T14:48:16;100451.38;;;15.09;95.73
51928;BME280;37953;52.806;18.270;2022-09-24T14:50:53;100454.88;;;15.09;96.92
51928;BME280;37953;52.806;18.270;2022-09-24T14:55:52;100459.22;;;15.09;97.91
51928;BME280;37953;52.806;18.270;2022-09-24T14:58:33;100453.13;;;15.10;98.11
51928;BME280;37953;52.806;18.270;2022-09-24T15:01:15;100450.50;;;15.10;97.68
51928;BME280;37953;52.806;18.270;2022-09-24T15:03:54;100451.44;;;15.05;95.89
51928;BME280;37953;52.806;18.270;2022-09-24T15:06:25;100450.53;;;15.06;96.61
51928;BME280;37953;52.806;18.270;2022-09-24T15:11:41;100455.75;;;15.06;100.00